createdAt,value
2022-12-22T00:00:54.299Z,99466.65
2022-12-22T00:06:18.833Z,99457.40
2022-12-22T00:11:41.041Z,99453.10
2022-12-22T00:17:02.649Z,99442.19
2022-12-22T00:22:38.556Z,99433.50
2022-12-22T00:28:00.211Z,99441.51
2022-12-22T00:33:24.283Z,99443.30
2022-12-22T00:38:47.023Z,99444.80
2022-12-22T00:44:08.600Z,99435.43
2022-12-22T00:49:29.719Z,99432.41
2022-12-22T00:54:50.732Z,99436.39
2022-12-22T01:00:14.302Z,99439.24
2022-12-22T01:05:36.319Z,99431.83
2022-12-22T01:10:57.890Z,99439.95
2022-12-22T01:16:19.600Z,99427.09
2022-12-22T01:21:40.756Z,99422.98
2022-12-22T01:27:01.849Z,99420.54
2022-12-22T01:32:23.395Z,99413.48
2022-12-22T01:37:45.025Z,99420.02
2022-12-22T01:43:06.112Z,99416.11
2022-12-22T01:48:30.818Z,99416.71
2022-12-22T01:53:53.483Z,99411.38
2022-12-22T01:59:18.817Z,99413.59
2022-12-22T02:04:45.365Z,99415.55
2022-12-22T02:10:28.624Z,99412.52
2022-12-22T02:15:57.448Z,99415.13
2022-12-22T02:21:27.347Z,99425.02
2022-12-22T02:27:00.588Z,99432.37
2022-12-22T02:32:22.748Z,99427.91
2022-12-22T02:38:02.298Z,99411.47
2022-12-22T02:43:47.986Z,99415.23
2022-12-22T02:49:11.216Z,99405.05
2022-12-22T02:54:35.126Z,99415.58
2022-12-22T02:59:56.360Z,99408.02
2022-12-22T03:05:17.991Z,99399.36
2022-12-22T03:10:39.844Z,99399.09
2022-12-22T03:16:01.391Z,99399.89
2022-12-22T03:21:22.645Z,99397.69
2022-12-22T03:26:26.704Z,99389.63
2022-12-22T03:31:29.488Z,99399.66
2022-12-22T03:36:32.585Z,99389.78
2022-12-22T03:41:54.111Z,99375.67
2022-12-22T03:46:57.032Z,99372.63
2022-12-22T03:52:00.078Z,99378.58
2022-12-22T03:57:02.892Z,99378.23
2022-12-22T04:02:06.988Z,99370.63
2022-12-22T04:07:09.942Z,99366.12
2022-12-22T04:12:31.202Z,99372.45
2022-12-22T04:17:34.036Z,99373.10
2022-12-22T04:22:36.867Z,99389.56
2022-12-22T04:27:40.136Z,99378.71
2022-12-22T04:32:42.906Z,99378.90
2022-12-22T04:37:45.658Z,99366.19
2022-12-22T04:42:48.480Z,99360.50
2022-12-22T04:47:51.498Z,99354.76
2022-12-22T04:52:54.453Z,99357.05
2022-12-22T04:57:57.303Z,99354.81
2022-12-22T05:03:00.282Z,99369.54
2022-12-22T05:08:04.212Z,99374.70
2022-12-22T05:13:07.244Z,99364.53
2022-12-22T05:18:10.096Z,99371.02
2022-12-22T05:23:13.014Z,99369.27
2022-12-22T05:28:15.975Z,99359.65
2022-12-22T05:33:19.348Z,99359.50
2022-12-22T05:38:22.269Z,99364.14
2022-12-22T05:43:25.287Z,99371.95
2022-12-22T05:48:33.716Z,99369.88
2022-12-22T05:53:40.824Z,99375.17
2022-12-22T05:58:43.629Z,99370.68
2022-12-22T06:03:46.559Z,99370.65
2022-12-22T06:08:49.480Z,99377.35
2022-12-22T06:13:52.281Z,99377.38
2022-12-22T06:18:55.597Z,99370.98
2022-12-22T06:23:58.442Z,99371.41
2022-12-22T06:29:01.289Z,99368.55
2022-12-22T06:34:04.175Z,99363.93
2022-12-22T06:39:07.251Z,99367.30
2022-12-22T06:44:10.125Z,99379.27
2022-12-22T06:49:13.019Z,99380.02
2022-12-22T06:54:19.483Z,99379.39
2022-12-22T06:59:25.145Z,99381.02
2022-12-22T07:04:29.780Z,99382.18
2022-12-22T07:09:32.602Z,99380.70
2022-12-22T07:14:35.488Z,99377.02
2022-12-22T07:19:38.962Z,99372.90
2022-12-22T07:24:42.198Z,99369.56
2022-12-22T07:29:46.133Z,99377.52
2022-12-22T07:34:49.503Z,99380.61
2022-12-22T07:39:52.265Z,99374.21
2022-12-22T07:44:55.078Z,99376.04
2022-12-22T07:50:16.559Z,99368.48
2022-12-22T07:55:19.947Z,99361.31
2022-12-22T08:00:24.251Z,99355.06
2022-12-22T08:05:27.108Z,99346.27
2022-12-22T08:10:30.213Z,99348.41
2022-12-22T08:15:33.038Z,99343.60
2022-12-22T08:20:36.028Z,99338.09
2022-12-22T08:25:40.388Z,99328.88
2022-12-22T08:30:43.645Z,99332.85
2022-12-22T08:35:46.533Z,99333.56
2022-12-22T08:40:50.033Z,99327.25
2022-12-22T08:45:52.955Z,99326.02
2022-12-22T08:50:55.758Z,99319.30
2022-12-22T08:55:58.692Z,99315.15
2022-12-22T09:01:01.552Z,99310.48
2022-12-22T09:06:04.528Z,99307.13
2022-12-22T09:11:07.428Z,99304.43
2022-12-22T09:16:10.776Z,99304.81
2022-12-22T09:21:13.667Z,99304.35
2022-12-22T09:26:19.337Z,99303.98
2022-12-22T09:31:23.714Z,99297.30
2022-12-22T09:36:29.581Z,99294.44
2022-12-22T09:41:37.513Z,99284.16
2022-12-22T09:46:40.738Z,99275.42
2022-12-22T09:51:49.572Z,99269.06
2022-12-22T09:56:52.449Z,99252.65
2022-12-22T10:02:33.117Z,99238.63
2022-12-22T10:07:40.224Z,99233.70
2022-12-22T10:12:43.135Z,99230.13
2022-12-22T10:17:46.253Z,99228.23
2022-12-22T10:23:02.002Z,99216.16
2022-12-22T10:28:13.123Z,99208.20
2022-12-22T10:33:18.475Z,99204.91
2022-12-22T10:38:29.809Z,99192.27
2022-12-22T10:43:39.067Z,99194.35
2022-12-22T10:48:41.988Z,99190.14
2022-12-22T10:53:56.875Z,99187.32
2022-12-22T10:59:02.552Z,99183.93
2022-12-22T11:04:26.028Z,99186.01
2022-12-22T11:09:34.204Z,99171.01
2022-12-22T11:14:56.467Z,99165.98
2022-12-22T11:20:17.717Z,99157.13
2022-12-22T11:25:36.084Z,99138.80
2022-12-22T11:30:52.325Z,99137.64
2022-12-22T11:36:01.845Z,99122.88
2022-12-22T11:41:34.989Z,99115.86
2022-12-22T11:47:03.374Z,99119.02
2022-12-22T11:52:48.348Z,99106.59
2022-12-22T11:57:54.121Z,99105.09
2022-12-22T12:03:27.051Z,99094.71
2022-12-22T12:08:51.419Z,99097.77
2022-12-22T12:14:16.516Z,99092.37
2022-12-22T12:20:03.499Z,99087.98
2022-12-22T12:25:31.591Z,99087.20
2022-12-22T12:30:48.889Z,99085.51
2022-12-22T12:36:02.142Z,99073.30
2022-12-22T12:41:10.869Z,99066.17
2022-12-22T12:46:50.739Z,99071.36
2022-12-22T12:51:54.657Z,99063.02
2022-12-22T12:57:00.631Z,99055.77
2022-12-22T13:02:03.604Z,99038.57
2022-12-22T13:07:06.596Z,99031.52
2022-12-22T13:12:49.770Z,99025.97
2022-12-22T13:17:52.752Z,99023.30
2022-12-22T13:22:57.754Z,99019.94
2022-12-22T13:28:00.724Z,99011.61
2022-12-22T13:33:03.702Z,99016.33
2022-12-22T13:38:07.024Z,99008.10
2022-12-22T13:43:16.815Z,99014.49
2022-12-22T13:48:21.363Z,99011.23
2022-12-22T13:54:07.070Z,99009.66
2022-12-22T13:59:02.956Z,99006.33
2022-12-22T14:04:07.984Z,99005.99
2022-12-22T14:09:19.706Z,99005.86
2022-12-22T14:14:35.216Z,99005.23
2022-12-22T14:19:38.596Z,99002.98
2022-12-22T14:24:48.377Z,98993.95
2022-12-22T14:29:51.159Z,98984.34
2022-12-22T14:34:54.508Z,98982.98
2022-12-22T14:39:57.467Z,98968.00
2022-12-22T14:45:00.336Z,98960.13
2022-12-22T14:50:17.444Z,98957.60
2022-12-22T14:55:30.114Z,98957.58
2022-12-22T15:00:39.657Z,98961.09
2022-12-22T15:05:44.682Z,98952.54
2022-12-22T15:10:47.574Z,98950.33
2022-12-22T15:15:52.305Z,98948.53
2022-12-22T15:20:56.947Z,98943.96
2022-12-22T15:25:59.766Z,98935.10
2022-12-22T15:31:04.158Z,98927.08
2022-12-22T15:36:11.331Z,98925.09
2022-12-22T15:41:14.133Z,98923.02
2022-12-22T15:46:18.830Z,98920.73
2022-12-22T15:51:25.651Z,98912.42
2022-12-22T15:56:32.219Z,98915.75
2022-12-22T16:01:35.166Z,98906.76
2022-12-22T16:06:38.780Z,98892.68
2022-12-22T16:11:41.674Z,98890.90
2022-12-22T16:16:44.532Z,98889.92
2022-12-22T16:21:50.114Z,98878.02
2022-12-22T16:26:53.138Z,98879.51
2022-12-22T16:32:17.638Z,98870.89
2022-12-22T16:37:21.025Z,98867.31
2022-12-22T16:47:44.813Z,98853.77
2022-12-22T16:52:49.661Z,98845.84
2022-12-22T16:57:52.865Z,98847.13
2022-12-22T17:02:59.603Z,98848.22
2022-12-22T17:08:05.938Z,98850.48
2022-12-22T17:13:09.735Z,98846.52
2022-12-22T17:18:21.371Z,98847.63
2022-12-22T17:23:39.484Z,98839.42
2022-12-22T17:28:43.628Z,98830.88
2022-12-22T17:33:47.524Z,98832.95
2022-12-22T17:38:50.328Z,98831.60
2022-12-22T17:43:53.195Z,98828.29
2022-12-22T17:48:56.044Z,98825.80
2022-12-22T17:53:59.362Z,98828.30
2022-12-22T17:59:02.155Z,98825.90
2022-12-22T18:04:05.615Z,98822.19
2022-12-22T18:09:19.010Z,98818.40
2022-12-22T18:14:22.850Z,98807.41
2022-12-22T18:19:26.135Z,98806.02
2022-12-22T18:24:28.956Z,98797.06
2022-12-22T18:29:31.768Z,98790.34
2022-12-22T18:34:35.469Z,98786.51
2022-12-22T18:39:38.321Z,98791.39
2022-12-22T18:44:41.119Z,98787.21
2022-12-22T18:49:44.852Z,98784.60
2022-12-22T18:54:48.199Z,98786.66
2022-12-22T18:59:51.018Z,98779.76
2022-12-22T19:04:55.390Z,98774.84
2022-12-22T19:09:58.311Z,98772.84
2022-12-22T19:15:06.078Z,98766.92
2022-12-22T19:20:16.400Z,98772.39
2022-12-22T19:25:23.229Z,98771.16
2022-12-22T19:30:29.331Z,98769.59
2022-12-22T19:35:32.782Z,98766.69
2022-12-22T19:40:35.691Z,98762.11
2022-12-22T19:45:38.675Z,98759.02
2022-12-22T19:50:41.512Z,98763.32
2022-12-22T19:55:48.841Z,98762.13
2022-12-22T20:00:52.723Z,98766.20
2022-12-22T20:05:55.624Z,98768.45
2022-12-22T20:11:00.055Z,98767.66
2022-12-22T20:16:04.766Z,98764.14
2022-12-22T20:21:13.091Z,98754.23
2022-12-22T20:26:20.963Z,98750.77
2022-12-22T20:31:24.739Z,98745.60
2022-12-22T20:36:31.981Z,98742.86
2022-12-22T20:41:35.256Z,98744.34
2022-12-22T20:46:39.899Z,98746.84
2022-12-22T20:51:42.870Z,98738.74
2022-12-22T20:56:45.863Z,98746.23
2022-12-22T21:01:51.542Z,98750.11
2022-12-22T21:06:56.088Z,98747.34
2022-12-22T21:11:58.848Z,98744.36
2022-12-22T21:17:01.658Z,98752.60
2022-12-22T21:22:04.860Z,98750.27
2022-12-22T21:27:18.158Z,98747.00
2022-12-22T21:32:20.962Z,98747.08
2022-12-22T21:37:23.911Z,98746.85
2022-12-22T21:42:27.362Z,98742.96
2022-12-22T21:47:30.200Z,98742.89
2022-12-22T21:52:33.978Z,98745.17
2022-12-22T21:57:36.805Z,98748.09
2022-12-22T22:02:39.730Z,98757.10
2022-12-22T22:07:42.698Z,98753.14
2022-12-22T22:12:46.406Z,98756.29
2022-12-22T22:17:49.675Z,98755.85
2022-12-22T22:22:54.219Z,98753.05
2022-12-22T22:28:00.114Z,98752.04
2022-12-22T22:33:03.000Z,98754.34
2022-12-22T22:38:05.813Z,98757.20
2022-12-22T22:43:08.724Z,98753.43
2022-12-22T22:48:19.338Z,98760.77
2022-12-22T22:53:22.203Z,98768.89
2022-12-22T22:58:25.005Z,98776.08
2022-12-22T23:03:27.914Z,98776.39
2022-12-22T23:08:31.083Z,98772.48
2022-12-22T23:13:33.931Z,98780.05
2022-12-22T23:18:37.080Z,98787.67
2022-12-22T23:23:40.535Z,98789.94
2022-12-22T23:28:43.284Z,98789.13
2022-12-22T23:33:46.099Z,98786.65
2022-12-22T23:38:51.071Z,98780.88
2022-12-22T23:43:55.135Z,98791.56
2022-12-22T23:48:58.846Z,98790.66
2022-12-22T23:54:01.719Z,98788.09
2022-12-22T23:59:04.515Z,98784.08
